Downloads

-JavaCPC -demo -emu -j-cpc_ani -tools 0-9 A B C D E F G H I J K L M N O P Q R S T U V W X Y Z ZZZ_UNK roms
FILEDATESIZEDLs
KTris by Richard Wilson (PD).zip 2017-04-21 16:14 2 Kb246
Kaiser (G) (19xx).zip 2017-04-21 16:13 91 Kb275
Kane & Nebulus & Renaud - Marche a l'Ombre.zip 2017-04-21 16:13 95 Kb149
Kane (UK) (1986).zip 2017-04-21 16:13 28 Kb237
Kane (UK) (1986) [a1].zip 2017-04-21 16:13 80 Kb247
Kane (UK) (1986) [a2].zip 2017-04-21 16:13 38 Kb232
Kane (UK) (1986) [t1].zip 2017-04-21 16:13 38 Kb250
Karateka (F) (1986).zip 2017-04-21 16:13 50 Kb242
Karateka (F) (1986) [f1].zip 2017-04-21 16:13 50 Kb245
Karateka (F) (1986) [t1].zip 2017-04-21 16:13 50 Kb238
Karateka (F) (1990).zip 2017-04-21 16:13 49 Kb240
Karateka (F) (1990) [t1].zip 2017-04-21 16:13 49 Kb232
Karateka (F).dsk 2017-04-21 16:13 192 Kb244
Karl's Treasure Hunt (UK) (1984).zip 2017-04-21 16:13 11 Kb236
Karl's Treasure Hunt (UK) (1984) [a1].zip 2017-04-21 16:13 84 Kb235
Karl's Treasure Hunt (UK) (1984) [a2].zip 2017-04-21 16:13 11 Kb233
Karnov (E) - Disk 1A.dsk 2017-04-21 16:13 214 Kb233
Karnov (E) - Disk 1B.dsk 2017-04-21 16:13 214 Kb231
Karnov (UK) (1988) (Disk 1 of 2).zip 2017-04-21 16:13 73 Kb221
Karnov (UK) (1988) (Disk 1 of 2) [a1].zip 2017-04-21 16:13 56 Kb218
Karnov (UK) (1988) (Disk 1 of 2) [t1].zip 2017-04-21 16:13 159 Kb231
Karnov (UK) (1988) (Disk 1 of 2) [t2].zip 2017-04-21 16:13 73 Kb216
Karnov (UK) (1988) (Disk 2 of 2).zip 2017-04-21 16:13 62 Kb225
Karnov (UK) (1988) (Disk 2 of 2) [a1].zip 2017-04-21 16:13 105 Kb225
Karnov (UK) (1988) (Disk 2 of 2) [t2].zip 2017-04-21 16:13 62 Kb256
Kat Trap (E).dsk 2017-04-21 16:13 91 Kb222
Kat Trap (UK) (1987).zip 2017-04-21 16:13 34 Kb228
Keep Yourself Alive (F) (1987).zip 2017-04-21 16:13 19 Kb232
Kenny Dalglish Soccer Manager (E).cdt 2017-04-21 16:13 57 Kb240
Kenny Dalglish Soccer Manager (UK) (1989).zip 2017-04-21 16:13 25 Kb225
Kenny Dalglish Soccer Match (UK) (1990).zip 2017-04-21 16:13 29 Kb225
Kentilla (UK) (1985).zip 2017-04-21 16:13 23 Kb230
Kentilla (UK) (1985) [a1].zip 2017-04-21 16:13 30 Kb230
Kentucky Racing (E).cdt 2017-04-21 16:13 45 Kb236
Kentucky Racing (UK) (1990).zip 2017-04-21 16:13 24 Kb224
Kentucky Racing (UK) (1990) [f1].zip 2017-04-21 16:13 24 Kb231
Kessia (F) (19xx).zip 2017-04-21 16:13 72 Kb223
Kettle (E).dsk 2017-04-21 16:13 193 Kb222
Kettle (UK) (1986).zip 2017-04-21 16:13 21 Kb234
Kevin Thacker's CPC Guide (UK) (19xx) (PD) (Disk 1 of 2).zip 2017-04-21 16:13 47 Kb219
Kevin Thacker's CPC Guide (UK) (19xx) (PD) (Disk 2 of 2).zip 2017-04-21 16:13 41 Kb224
Key Factor, The (UK) (1985).zip 2017-04-21 16:13 13 Kb227
Kick Off (UK,F,G,S,I) (1990).zip 2017-04-21 16:13 27 Kb227
Kick Off (UK,F,G,S,I) (1990) [a1].zip 2017-04-21 16:13 131 Kb222
Kick Off (UK,F,G,S,I) (1990) [a2].zip 2017-04-21 16:13 31 Kb218
Kick Off 2 (E) - Disk 1A.dsk 2017-04-21 16:13 178 Kb239
Kick Off 2 (E) - Disk 1B.dsk 2017-04-21 16:13 178 Kb232
Kick Off 2 (F) (1990).zip 2017-04-21 16:13 68 Kb226
Kick Off 2 (F) (1990) [a1].zip 2017-04-21 16:13 68 Kb227
Kikstart II (UK) (1988).zip 2017-04-21 16:13 24 Kb229
Kikstart II (UK) (1988) [a1].zip 2017-04-21 16:13 23 Kb234
Killapede (UK) (1986).zip 2017-04-21 16:13 26 Kb224
Killapede (UK) (1986) [a1].zip 2017-04-21 16:13 26 Kb221
Killapede (UK) (1986) [a2].zip 2017-04-21 16:13 32 Kb233
Killapede (UK) (1986) [a3].zip 2017-04-21 16:13 30 Kb256
Killed Until Dead (UK) (1987) (Disk 1 of 2).zip 2017-04-21 16:13 50 Kb215
Killed Until Dead (UK) (1987) (Disk 2 of 2).zip 2017-04-21 16:13 62 Kb220
Killer Ball (UK) (1991).zip 2017-04-21 16:14 103 Kb224
Killer Ball (UK) (1991) [a1].zip 2017-04-21 16:13 103 Kb223
Killer Ball (UK) (1991) [a2].zip 2017-04-21 16:13 76 Kb222
Killer Ball (UK) (1991) [a3].zip 2017-04-21 16:13 96 Kb219
Killer Cobra (E).cdt 2017-04-21 16:14 49 Kb225
Killer Cobra (UK) (1987).zip 2017-04-21 16:14 27 Kb226
Killer Cobra (UK) (1987) [a1].zip 2017-04-21 16:14 27 Kb224
Killer Cobra (UK) (1987) [a2].zip 2017-04-21 16:14 31 Kb219
Killer Gorilla & Knight Lore & Laserwarp & Molecule Man & Zaxx (F).zip 2017-04-21 16:14 82 Kb142
Killer Gorilla (UK) (1984).zip 2017-04-21 16:14 19 Kb226
Killer Gorilla (UK) (1984) [a1].zip 2017-04-21 16:14 19 Kb232
Killer Gorilla (UK) (1984) [a2].zip 2017-04-21 16:14 15 Kb236
Killer Gorilla (UK) (1984) [a3].zip 2017-04-21 16:14 18 Kb226
Killer Gorilla (UK) (1984) [b1].zip 2017-04-21 16:14 19 Kb226
Killer Gorilla (UK) (1984) [b2].zip 2017-04-21 16:14 19 Kb227
Killer Ring (UK) (1987).zip 2017-04-21 16:14 16 Kb229
Killer Ring (UK) (1987) [a1].zip 2017-04-21 16:14 16 Kb231
Kiloroid (UK) (19xx).zip 2017-04-21 16:14 2 Kb223
Kim (F) (1986).zip 2017-04-21 16:14 9 Kb224
Kinetic (UK) (1987).zip 2017-04-21 16:14 35 Kb223
Kinetic (UK) (1987) [a1].zip 2017-04-21 16:14 36 Kb229
Kinetic (UK) (1987) [a2].zip 2017-04-21 16:14 35 Kb232
Kinetik (E).dsk 2017-04-21 16:14 195 Kb240
Kingdom of Hamil (UK) (1987).zip 2017-04-21 16:14 57 Kb224
Kingdoms (UK) (1985).zip 2017-04-21 16:14 5 Kb223
Kit de Telechargement - Telecharge Amstrad CPC (F).dsk 2017-04-21 16:14 217 Kb232
Kit de Telechargement pour Amstrad CPC (F).dsk 2017-04-21 16:14 191 Kb247
Klax & Meynaumede (F) & Nervous Break Down (F) & Skweek.zip 2017-04-21 16:14 97 Kb143
Klax (E).dsk 2017-04-21 16:14 172 Kb229
Klax (UK) (1990) (CPM).zip 2017-04-21 16:14 44 Kb220
Klax (UK) (1990) (CPM) [a1].zip 2017-04-21 16:14 44 Kb235
Klax (UK) (1990) (CPM Version).zip 2017-04-21 16:14 43 Kb218
Klax (UK) (1990) (CPM Version) [a1].zip 2017-04-21 16:14 43 Kb227
Klax (UK) (1990) (Cart).zip 2017-04-21 16:14 41 Kb231
Klax (UK) (1990).zip 2017-04-21 16:14 42 Kb220
Klax (UK) (1990) [a1].zip 2017-04-21 16:14 42 Kb233
Klax (UK) (1990) [h1].zip 2017-04-21 16:14 52 Kb223
Klax (UK) (1990) [h2].zip 2017-04-21 16:14 54 Kb227
Knaves and thou Prisoners (UK) (19xx).zip 2017-04-21 16:14 8 Kb218
Knight Force (F) (1989) (Disk 1 of 2).zip 2017-04-21 16:14 54 Kb222
Knight Force (F) (1989) (Disk 1 of 2) [t1].zip 2017-04-21 16:14 55 Kb219
Knight Force (F) (1989) (Disk 1 of 2) [t2] & Power Drift.zip 2017-04-21 16:14 108 Kb133
Knight Force (F) (1989) (Disk 1 of 2) [t2].zip 2017-04-21 16:14 75 Kb216
Knight Force (F) (1989) (Disk 2 of 2).zip 2017-04-21 16:14 76 Kb225
Knight Force (F) - Disk 1A.dsk 2017-04-21 16:14 456 Kb227
Knight Force (F) - Disk 1B.dsk 2017-04-21 16:14 627 Kb227
Knight Games (E) - Side A.cdt 2017-04-21 16:14 166 Kb235
Knight Games (E) - Side B.cdt 2017-04-21 16:14 142 Kb224
Knight Games (UK) (1986) (Disk 1 of 2).zip 2017-04-21 16:14 88 Kb228
Knight Games (UK) (1986) (Disk 1 of 2) [a1].zip 2017-04-21 16:14 83 Kb220
Knight Games (UK) (1986) (Disk 1 of 2) [a2].zip 2017-04-21 16:14 83 Kb219
Knight Games (UK) (1986) (Disk 1 of 2) [a3].zip 2017-04-21 16:14 103 Kb213
Knight Games (UK) (1986) (Disk 2 of 2).zip 2017-04-21 16:14 94 Kb228
Knight Games (UK) (1986) (Disk 2 of 2) [a1].zip 2017-04-21 16:14 76 Kb220
Knight Games (UK) (1986) (Disk 2 of 2) [a2].zip 2017-04-21 16:14 79 Kb217
Knight Games (UK) (1986) (Disk 2 of 2) [a3].zip 2017-04-21 16:14 109 Kb219
Knight Games (UK) (1986) [f1][t1].zip 2017-04-21 16:14 179 Kb223
Knight Lore (E).cdt 2017-04-21 16:14 42 Kb229
Knight Lore (UK) (1984).zip 2017-04-21 16:14 25 Kb232
Knight Lore (UK) (1984) [a1].zip 2017-04-21 16:14 25 Kb221
Knight Lore (UK) (1984) [a2].zip 2017-04-21 16:14 25 Kb231
Knight Moves (F) (19xx) (Disk 1 of 2).zip 2017-04-21 16:14 60 Kb223
Knight Moves (F) (19xx) (Disk 2 of 2).zip 2017-04-21 16:14 83 Kb225
Knight Orc (E) - Disk 1A.dsk 2017-04-21 16:14 194 Kb226
Knight Orc (E) - Disk 1B.dsk 2017-04-21 16:14 199 Kb226
Knight Orc (UK) (1987) (Disk 1 of 2).zip 2017-04-21 16:14 119 Kb236
Knight Orc (UK) (1987) (Disk 2 of 2).zip 2017-04-21 16:14 110 Kb229
Knight Rider (E).cdt 2017-04-21 16:14 45 Kb232
Knight Rider (UK) (1986).zip 2017-04-21 16:14 20 Kb225
Knight Rider (UK) (1986) [h1].zip 2017-04-21 16:14 32 Kb223
Knight Rider (UK) (1986) [h2].zip 2017-04-21 16:14 21 Kb230
Knight Tyme (E).cdt 2017-04-21 16:14 57 Kb233
Knight Tyme (UK) (1986).zip 2017-04-21 16:14 31 Kb235
Knight Tyme (UK) (1986) [a1].zip 2017-04-21 16:14 31 Kb229
Knight Tyme (UK) (1986) [t1].zip 2017-04-21 16:14 31 Kb221
Knightmare (E).dsk 2017-04-21 16:14 213 Kb243
Knightmare (UK) (1987).zip 2017-04-21 16:14 29 Kb224
Knightmare (UK) (1987) [a1].zip 2017-04-21 16:14 30 Kb223
Knightmare (UK) (1987) [a2].zip 2017-04-21 16:14 30 Kb232
Knightmare (UK) (1987) [t1].zip 2017-04-21 16:14 33 Kb226
Know (G).dsk 2017-04-21 16:14 192 Kb244
Kobayashi Naru (UK) (19xx).zip 2017-04-21 16:14 31 Kb236
Kobayashi Naru (UK) (1987).zip 2017-04-21 16:14 31 Kb240
Kobayashi Naru (UK) (1987) [a1].zip 2017-04-21 16:14 31 Kb226
Kobayashi Naru (UK) (1987) [a2].zip 2017-04-21 16:14 48 Kb247
Kokotoni Wilf (UK) (19xx).zip 2017-04-21 16:14 137 Kb235
Kokotoni Wilf (UK) (19xx) [a1].zip 2017-04-21 16:14 35 Kb234
Kokotoni Wilf (UK) (19xx) [f1][t1].zip 2017-04-21 16:14 37 Kb226
Konami's Golf (UK) (1986).zip 2017-04-21 16:14 24 Kb223
Konami's Golf (UK) (1986) [a1].zip 2017-04-21 16:14 24 Kb226
Konami's Golf (UK) (1986) [a2].zip 2017-04-21 16:14 26 Kb229
Konami Coin-op Hits (UK) (19xx) (Disk 1 of 2).zip 2017-04-21 16:14 50 Kb229
Konami Coin-op Hits (UK) (19xx) (Disk 1 of 2) [a1].zip 2017-04-21 16:14 50 Kb216
Konami Coin-op Hits (UK) (19xx) (Disk 2 of 2).zip 2017-04-21 16:14 65 Kb220
Konami Coin-op Hits (UK) (19xx) (Disk 2 of 2) [a1].zip 2017-04-21 16:14 65 Kb239
Konami Coin-op Hits (UK) (19xx) (Disk 2 of 2) [a2].zip 2017-04-21 16:14 65 Kb219
Kong Strikes Back (UK) (1985).zip 2017-04-21 16:14 21 Kb242
Kong Strikes Back (UK) (1985) [a1].zip 2017-04-21 16:14 21 Kb239
Kong Strikes Back (UK) (1985) [a2].zip 2017-04-21 16:14 23 Kb228
Koronis Rift (E).dsk 2017-04-21 16:14 186 Kb232
Koronis Rift (UK) (1987).zip 2017-04-21 16:14 57 Kb232
Krakout (E).cdt 2017-04-21 16:14 64 Kb243
Krakout (E).dsk 2017-04-21 16:14 171 Kb234
Krakout (UK) (1987).zip 2017-04-21 16:14 31 Kb232
Krakout (UK) (1987) [h1].zip 2017-04-21 16:14 34 Kb232
Kristal (F).dsk 2017-04-21 16:14 191 Kb234
Kristal (UK) (1985).zip 2017-04-21 16:14 16 Kb237
Kristax (UK) (1989).zip 2017-04-21 16:14 9 Kb238
Krypton Factor (UK) (1987) (Disk 1 of 2).zip 2017-04-21 16:14 52 Kb221
Krypton Factor (UK) (1987) (Disk 1 of 2) [a1].zip 2017-04-21 16:14 47 Kb230
Krypton Factor (UK) (1987) (Disk 2 of 2).zip 2017-04-21 16:14 5 Kb227
Krypton Factor (UK) (1987) (Disk 2 of 2) [a1].zip 2017-04-21 16:14 21 Kb226
Kung-Fu (UK) (1986).zip 2017-04-21 16:14 19 Kb229
Kung-Fu Master (E).dsk 2017-04-21 16:14 191 Kb224
Kung-Fu Master (UK) (1986).zip 2017-04-21 16:14 28 Kb240
Kung-Fu Master (UK) (1986) [h1].zip 2017-04-21 16:14 22 Kb230
Kwah (UK) (1987).zip 2017-04-21 16:14 36 Kb216
Kwik Snax (E).cdt 2017-04-21 16:14 65 Kb243
Kwik Snax (UK) (1990).zip 2017-04-21 16:14 22 Kb224
Kwik Snax (UK) (1990) [f1].zip 2017-04-21 16:14 33 Kb237
Kwik Snax (UK) (1990) [h1].zip 2017-04-21 16:14 41 Kb230
Kwik Snax (UK) (1990) [t1].zip 2017-04-21 16:14 33 Kb231
kobayashi Naru (E).cdt 2017-04-21 16:14 74 Kb232
180 Files
-JavaCPC -demo -emu -j-cpc_ani -tools 0-9 A B C D E F G H I J K L M N O P Q R S T U V W X Y Z ZZZ_UNK roms